createdAt,value
2016-08-18T14:51:03.584Z,92.00
2016-08-18T14:52:04.269Z,93.00
2016-08-18T14:53:04.330Z,93.00
2016-08-18T14:54:05.028Z,92.00
2016-08-18T14:55:05.701Z,92.00
2016-08-18T14:56:06.079Z,93.00
2016-08-18T14:57:06.735Z,93.00
2016-08-18T14:58:06.813Z,93.00
2016-08-18T14:59:07.350Z,92.00
2016-08-18T15:00:08.194Z,93.00
2016-08-18T15:01:08.690Z,93.00
2016-08-18T15:02:09.247Z,93.00
2016-08-18T15:03:10.062Z,93.00
2016-08-18T15:04:10.275Z,93.00
2016-08-18T15:05:11.107Z,93.00
2016-08-18T15:06:11.057Z,93.00
2016-08-18T15:07:12.004Z,93.00
2016-08-18T15:08:12.404Z,93.00
2016-08-18T15:09:13.201Z,93.00
2016-08-18T15:10:13.721Z,94.00
2016-08-18T15:11:14.128Z,94.00
2016-08-18T15:12:14.324Z,94.00
2016-08-18T15:13:14.865Z,94.00
2016-08-18T15:14:15.519Z,94.00
2016-08-18T15:15:15.747Z,93.00
2016-08-18T15:16:16.583Z,94.00
2016-08-18T15:17:16.947Z,94.00
2016-08-18T15:18:17.495Z,93.00
2016-08-18T15:19:18.329Z,93.00
2016-08-18T15:20:18.551Z,92.00
2016-08-18T15:21:19.346Z,92.00
2016-08-18T15:22:19.752Z,92.00
2016-08-18T15:23:20.100Z,92.00
2016-08-18T15:24:21.225Z,93.00
2016-08-18T15:25:21.331Z,93.00
2016-08-18T15:26:21.531Z,93.00
2016-08-18T15:27:22.971Z,94.00
2016-08-18T15:28:23.938Z,93.00
2016-08-18T15:29:23.606Z,93.00
2016-08-18T15:30:23.949Z,94.00
2016-08-18T15:31:24.621Z,94.00
2016-08-18T15:32:24.731Z,93.00
2016-08-18T15:33:25.253Z,94.00
2016-08-18T15:34:25.790Z,93.00
2016-08-18T15:35:26.334Z,94.00
2016-08-18T15:36:26.870Z,95.00
2016-08-18T15:37:27.408Z,96.00
2016-08-18T15:38:27.946Z,96.00
2016-08-18T15:39:28.636Z,95.00
2016-08-18T15:40:29.029Z,95.00
2016-08-18T15:41:29.577Z,95.00
2016-08-18T15:42:30.105Z,95.00
2016-08-18T15:43:30.797Z,95.00
2016-08-18T15:44:31.184Z,95.00
2016-08-18T15:45:31.873Z,94.00
2016-08-18T15:46:32.261Z,94.00
2016-08-18T15:47:32.813Z,94.00
2016-08-18T15:48:33.340Z,94.00
2016-08-18T15:49:33.882Z,94.00
2016-08-18T15:50:34.417Z,93.00
2016-08-18T15:51:34.952Z,93.00
2016-08-18T15:52:35.494Z,93.00
2016-08-18T15:53:36.031Z,93.00
2016-08-18T15:54:36.607Z,93.00
2016-08-18T15:55:37.119Z,94.00
2016-08-18T15:56:37.806Z,93.00
2016-08-18T15:57:38.211Z,92.00
2016-08-18T15:58:40.240Z,92.00
2016-08-18T15:59:39.276Z,92.00
2016-08-18T16:00:40.377Z,92.00
2016-08-18T16:01:40.449Z,92.00
2016-08-18T16:02:41.122Z,92.00
2016-08-18T16:03:41.818Z,92.00
2016-08-18T16:04:42.170Z,93.00
2016-08-18T16:05:42.993Z,93.00
2016-08-18T16:06:43.219Z,93.00
2016-08-18T16:07:43.742Z,93.00
2016-08-18T16:08:44.727Z,93.00
2016-08-18T16:09:44.793Z,93.00
2016-08-18T16:10:45.170Z,93.00
2016-08-18T16:11:45.730Z,93.00
2016-08-18T16:12:46.393Z,93.00
2016-08-18T16:13:46.750Z,92.00
2016-08-18T16:14:47.711Z,92.00
2016-08-18T16:15:47.790Z,92.00
2016-08-18T16:16:48.634Z,92.00
2016-08-18T16:17:48.979Z,91.00
2016-08-18T16:18:49.382Z,91.00
2016-08-18T16:19:51.411Z,90.00
2016-08-18T16:20:50.409Z,90.00
2016-08-18T16:21:51.395Z,90.00
2016-08-18T16:22:51.479Z,91.00
2016-08-18T16:23:51.982Z,91.00
2016-08-18T16:24:52.959Z,91.00
2016-08-18T16:25:53.643Z,91.00
2016-08-18T16:26:53.853Z,91.00
2016-08-18T16:27:54.532Z,90.00
2016-08-18T16:28:54.777Z,90.00
2016-08-18T16:29:55.149Z,90.00
2016-08-18T16:30:55.941Z,89.00
2016-08-18T16:31:56.187Z,89.00
2016-08-18T16:32:56.855Z,88.00
2016-08-18T16:33:57.387Z,89.00
2016-08-18T16:34:57.917Z,89.00
2016-08-18T16:35:58.419Z,89.00
2016-08-18T16:36:59.133Z,89.00
2016-08-18T16:37:59.634Z,89.00
2016-08-18T16:39:00.292Z,88.00
2016-08-18T16:40:00.817Z,87.00
2016-08-18T16:41:00.740Z,88.00
2016-08-18T16:42:01.568Z,87.00
2016-08-18T16:43:02.387Z,86.00
2016-08-18T16:44:02.943Z,86.00
2016-08-18T16:45:02.856Z,86.00
2016-08-18T16:46:03.518Z,85.00
2016-08-18T16:47:04.036Z,85.00
2016-08-18T16:48:04.426Z,84.00
2016-08-18T16:49:04.971Z,84.00
2016-08-18T16:50:05.506Z,84.00
2016-08-18T16:51:06.496Z,84.00
2016-08-18T16:52:06.861Z,84.00
2016-08-18T16:53:07.231Z,83.00
2016-08-18T16:54:07.775Z,83.00
2016-08-18T16:55:08.163Z,83.00
2016-08-18T16:56:08.708Z,82.00
2016-08-18T16:57:09.243Z,82.00
2016-08-18T16:58:09.792Z,81.00
2016-08-18T16:59:10.322Z,81.00
2016-08-18T17:00:10.859Z,80.00
2016-08-18T17:01:11.402Z,80.00
2016-08-18T17:02:13.020Z,79.00
2016-08-18T17:03:12.908Z,79.00
2016-08-18T17:04:13.589Z,78.00
2016-08-18T17:05:13.529Z,78.00
2016-08-18T17:06:14.069Z,78.00
2016-08-18T17:07:14.607Z,77.00
2016-08-18T17:08:15.147Z,77.00
2016-08-18T17:09:15.697Z,76.00
2016-08-18T17:10:16.221Z,76.00
2016-08-18T17:11:16.909Z,75.00
2016-08-18T17:12:17.310Z,75.00
2016-08-18T17:13:17.849Z,74.00
2016-08-18T17:14:18.398Z,74.00
2016-08-18T17:15:19.079Z,73.00
2016-08-18T17:16:19.474Z,73.00
2016-08-18T17:17:20.022Z,72.00
2016-08-18T17:18:20.546Z,72.00
2016-08-18T17:19:21.087Z,71.00
2016-08-18T17:20:21.639Z,71.00
2016-08-18T17:21:22.162Z,69.00
2016-08-18T17:22:22.699Z,68.00
2016-08-18T17:23:23.238Z,65.00
2016-08-18T17:24:23.928Z,66.00
2016-08-18T17:25:24.316Z,66.00
2016-08-18T17:26:24.853Z,66.00
2016-08-18T17:27:25.417Z,66.00
2016-08-18T17:28:25.937Z,66.00
2016-08-18T17:29:26.473Z,65.00
2016-08-18T17:30:27.021Z,64.00
2016-08-18T17:31:27.552Z,63.00
2016-08-18T17:32:28.087Z,63.00
2016-08-18T17:33:28.628Z,62.00
2016-08-18T17:34:31.123Z,61.00
2016-08-18T17:35:29.705Z,61.00
2016-08-18T17:36:30.248Z,60.00
2016-08-18T17:37:30.791Z,59.00
2016-08-18T17:38:33.493Z,58.00
2016-08-18T17:39:31.992Z,57.00
2016-08-18T17:40:32.722Z,56.00
2016-08-18T17:41:33.057Z,55.00
2016-08-18T17:42:33.417Z,54.00
2016-08-18T17:43:33.983Z,53.00
2016-08-18T17:44:35.244Z,52.00
2016-08-18T17:45:35.626Z,52.00
2016-08-18T17:46:35.549Z,52.00
2016-08-18T17:47:36.093Z,52.00
2016-08-18T17:48:36.639Z,51.00
2016-08-18T17:49:38.084Z,49.00
2016-08-18T17:50:37.715Z,48.00
2016-08-18T17:51:38.260Z,47.00
2016-08-18T17:52:38.951Z,29.00
2016-08-18T17:53:39.341Z,8.00
2016-08-18T17:54:39.888Z,7.00
2016-08-18T17:55:40.416Z,6.00
2016-08-18T17:56:40.958Z,6.00
2016-08-18T17:57:41.502Z,6.00
2016-08-18T17:58:42.041Z,6.00
2016-08-18T17:59:42.575Z,6.00
2016-08-18T18:00:43.140Z,5.00
2016-08-18T18:01:43.652Z,5.00
2016-08-18T18:02:44.195Z,5.00
2016-08-18T18:03:44.879Z,5.00
2016-08-18T18:04:45.272Z,5.00
2016-08-18T18:05:45.810Z,5.00
2016-08-18T18:06:46.352Z,5.00
2016-08-18T18:07:46.888Z,4.00
2016-08-18T18:08:47.452Z,4.00
2016-08-18T18:09:47.968Z,4.00
2016-08-18T18:10:48.511Z,4.00
2016-08-18T18:11:49.049Z,4.00
2016-08-18T18:12:49.591Z,4.00
2016-08-18T18:13:50.132Z,4.00
2016-08-18T18:14:50.670Z,4.00
2016-08-18T18:15:51.209Z,3.00
2016-08-18T18:16:51.752Z,3.00
2016-08-18T18:17:52.290Z,3.00
2016-08-18T18:18:52.836Z,3.00
2016-08-18T18:19:55.173Z,3.00
2016-08-18T18:20:54.060Z,3.00
2016-08-18T18:21:54.451Z,3.00
2016-08-18T18:22:54.988Z,2.00
2016-08-18T18:23:55.535Z,2.00
2016-08-18T18:24:56.078Z,2.00
2016-08-18T18:25:56.626Z,2.00
2016-08-18T18:26:57.206Z,2.00
2016-08-18T18:27:57.711Z,2.00
2016-08-18T18:28:58.251Z,2.00
2016-08-18T18:29:58.799Z,2.00
2016-08-18T18:30:59.349Z,1.00
2016-08-18T18:31:59.873Z,1.00
2016-08-18T18:33:00.414Z,1.00
2016-08-18T18:34:00.952Z,1.00
2016-08-18T18:35:01.495Z,1.00
2016-08-18T18:36:02.180Z,1.00
2016-08-18T18:37:02.580Z,1.00
2016-08-18T18:38:03.111Z,1.00
2016-08-18T18:39:03.654Z,1.00
2016-08-18T18:40:04.191Z,1.00
2016-08-18T18:41:04.735Z,0.00
2016-08-18T18:42:05.275Z,0.00
2016-08-18T18:43:05.820Z,0.00
2016-08-18T18:44:06.355Z,0.00
2016-08-18T18:45:06.900Z,0.00
2016-08-18T18:46:07.441Z,0.00
2016-08-18T18:47:07.982Z,0.00
2016-08-18T18:48:08.517Z,0.00
2016-08-18T18:49:09.058Z,0.00
2016-08-18T18:50:09.605Z,0.00
2016-08-18T18:51:10.138Z,0.00
2016-08-18T18:52:10.829Z,0.00
2016-08-18T18:53:11.218Z,0.00
2016-08-18T18:54:11.759Z,0.00
2016-08-18T18:55:12.298Z,0.00
2016-08-18T18:56:12.861Z,0.00
2016-08-18T18:57:13.392Z,0.00
2016-08-18T18:58:13.923Z,0.00
2016-08-18T18:59:14.465Z,0.00
2016-08-18T19:00:15.460Z,0.00
2016-08-18T19:01:15.854Z,0.00
2016-08-18T19:02:16.070Z,0.00
2016-08-18T19:03:16.597Z,0.00
2016-08-18T19:04:17.592Z,0.00
2016-08-18T19:05:18.097Z,0.00
2016-08-18T19:06:18.772Z,0.00
2016-08-18T19:07:19.014Z,0.00
2016-08-18T19:08:19.666Z,0.00
2016-08-18T19:09:19.898Z,0.00
2016-08-18T19:10:20.414Z,0.00
2016-08-18T19:11:21.121Z,0.00
2016-08-18T19:12:21.619Z,0.00
2016-08-18T19:13:22.159Z,0.00
2016-08-18T19:14:22.553Z,0.00
2016-08-18T19:15:22.911Z,0.00
2016-08-18T19:16:23.447Z,0.00
2016-08-18T19:17:23.990Z,0.00
2016-08-18T19:18:24.530Z,0.00
2016-08-18T19:19:25.074Z,0.00
2016-08-18T19:20:25.606Z,0.00
2016-08-18T19:21:26.147Z,0.00
2016-08-18T19:22:26.687Z,0.00
2016-08-18T19:23:27.227Z,0.00
2016-08-18T19:24:27.773Z,0.00
2016-08-18T19:25:28.313Z,0.00
2016-08-18T19:26:28.848Z,0.00
2016-08-18T19:27:29.398Z,0.00
2016-08-18T19:28:29.925Z,0.00
2016-08-18T19:29:30.467Z,0.00
2016-08-18T19:30:31.007Z,0.00
2016-08-18T19:31:31.550Z,0.00
2016-08-18T19:32:32.238Z,0.00
2016-08-18T19:33:32.632Z,0.00
2016-08-18T19:34:33.173Z,0.00
2016-08-18T19:35:33.718Z,0.00
2016-08-18T19:36:34.255Z,0.00
2016-08-18T19:37:34.801Z,0.00
2016-08-18T19:38:35.345Z,0.00
2016-08-18T19:39:35.893Z,0.00
2016-08-18T19:40:36.582Z,0.00
2016-08-18T19:41:36.970Z,0.00
2016-08-18T19:42:37.510Z,0.00
2016-08-18T19:43:38.051Z,0.00
2016-08-18T19:44:38.611Z,0.00
2016-08-18T19:45:39.133Z,0.00
2016-08-18T19:46:39.670Z,0.00
2016-08-18T19:47:40.214Z,0.00
2016-08-18T19:48:40.758Z,0.00
2016-08-18T19:49:41.293Z,0.00
2016-08-18T19:50:41.832Z,0.00
2016-08-18T19:51:42.378Z,0.00
2016-08-18T19:52:42.915Z,0.00
2016-08-18T19:53:43.455Z,0.00
2016-08-18T19:54:44.007Z,0.00
2016-08-18T19:55:44.538Z,0.00
2016-08-18T19:56:45.228Z,0.00
2016-08-18T19:57:45.618Z,0.00
2016-08-18T19:58:46.160Z,0.00
2016-08-18T19:59:46.700Z,0.00
2016-08-18T20:00:47.265Z,0.00
2016-08-18T20:01:47.778Z,0.00
2016-08-18T20:02:48.320Z,0.00
2016-08-18T20:03:48.861Z,0.00
2016-08-18T20:04:49.399Z,0.00
2016-08-18T20:05:49.940Z,0.00
2016-08-18T20:06:50.478Z,0.00
2016-08-18T20:07:51.024Z,0.00
2016-08-18T20:08:51.559Z,0.00
2016-08-18T20:09:52.103Z,0.00
2016-08-18T20:10:52.643Z,0.00
2016-08-18T20:11:53.183Z,0.00
2016-08-18T20:12:53.723Z,0.00
2016-08-18T20:13:54.295Z,0.00
2016-08-18T20:14:54.818Z,0.00
2016-08-18T20:15:55.373Z,0.00
2016-08-18T20:16:55.915Z,0.00
2016-08-18T20:17:56.443Z,0.00
2016-08-18T20:18:57.150Z,0.00
2016-08-18T20:19:57.524Z,0.00
2016-08-18T20:20:58.084Z,0.00
2016-08-18T20:21:58.606Z,0.00
2016-08-18T20:22:59.143Z,0.00
2016-08-18T20:23:59.705Z,0.00
2016-08-18T20:25:00.220Z,0.00
2016-08-18T20:26:00.762Z,0.00
2016-08-18T20:27:01.454Z,0.00
2016-08-18T20:28:01.842Z,0.00
2016-08-18T20:29:02.395Z,0.00
2016-08-18T20:30:02.922Z,0.00
2016-08-18T20:31:03.463Z,0.00
2016-08-18T20:32:03.999Z,0.00
2016-08-18T20:33:04.553Z,0.00
2016-08-18T20:34:05.086Z,0.00
2016-08-18T20:35:05.622Z,0.00
2016-08-18T20:36:06.165Z,0.00
2016-08-18T20:37:06.701Z,0.00
2016-08-18T20:38:07.249Z,0.00
2016-08-18T20:39:07.782Z,0.00
2016-08-18T20:40:08.321Z,0.00
2016-08-18T20:41:08.864Z,0.00
2016-08-18T20:42:09.407Z,0.00
2016-08-18T20:43:09.948Z,0.00
2016-08-18T20:44:10.488Z,0.00
2016-08-18T20:45:11.191Z,0.00
2016-08-18T20:46:11.569Z,0.00
2016-08-18T20:47:12.128Z,0.00
2016-08-18T20:48:12.649Z,0.00
2016-08-18T20:49:13.189Z,0.00
2016-08-18T20:50:13.736Z,0.00
2016-08-18T20:51:14.278Z,0.00
2016-08-18T20:52:14.863Z,0.00
2016-08-18T20:53:15.515Z,0.00
2016-08-18T20:54:15.903Z,0.00
2016-08-18T20:55:16.456Z,0.00
2016-08-18T20:56:17.013Z,0.00
2016-08-18T20:57:17.521Z,0.00
2016-08-18T20:58:18.064Z,0.00
2016-08-18T20:59:18.601Z,0.00
2016-08-18T21:00:19.152Z,0.00
2016-08-18T21:01:19.835Z,0.00
2016-08-18T21:02:20.371Z,0.00
2016-08-18T21:03:20.759Z,0.00
2016-08-18T21:04:21.300Z,0.00
2016-08-18T21:05:21.837Z,0.00
2016-08-18T21:06:22.377Z,0.00
2016-08-18T21:07:23.070Z,0.00
2016-08-18T21:08:23.460Z,0.00
2016-08-18T21:09:24.152Z,0.00
2016-08-18T21:10:24.552Z,0.00
2016-08-18T21:11:25.080Z,0.00
2016-08-18T21:12:25.927Z,0.00
2016-08-18T21:13:26.158Z,0.00
2016-08-18T21:14:26.700Z,0.00
2016-08-18T21:15:27.257Z,0.00
2016-08-18T21:16:27.783Z,0.00
2016-08-18T21:17:28.322Z,0.00
2016-08-18T21:18:28.866Z,0.00
2016-08-18T21:19:29.405Z,0.00
2016-08-18T21:20:29.950Z,0.00
2016-08-18T21:21:30.489Z,0.00
2016-08-18T21:22:31.028Z,0.00
2016-08-18T21:23:31.571Z,0.00
2016-08-18T21:24:32.107Z,0.00
2016-08-18T21:25:32.659Z,0.00
2016-08-18T21:26:33.195Z,0.00
2016-08-18T21:27:33.740Z,0.00
2016-08-18T21:28:34.282Z,0.00
2016-08-18T21:29:34.820Z,0.00
2016-08-18T21:30:35.360Z,0.00
2016-08-18T21:31:35.924Z,0.00
2016-08-18T21:32:36.444Z,0.00
2016-08-18T21:33:36.978Z,0.00
2016-08-18T21:34:37.669Z,0.00
2016-08-18T21:35:38.216Z,0.00
2016-08-18T21:36:38.628Z,0.00
2016-08-18T21:37:39.141Z,0.00
2016-08-18T21:38:39.680Z,0.00
2016-08-18T21:39:40.220Z,0.00
2016-08-18T21:40:40.761Z,0.00
2016-08-18T21:41:41.306Z,0.00
2016-08-18T21:42:41.839Z,0.00
2016-08-18T21:43:42.380Z,0.00
2016-08-18T21:44:42.923Z,0.00
2016-08-18T21:45:43.470Z,0.00
2016-08-18T21:46:44.003Z,0.00
2016-08-18T21:47:44.548Z,0.00
2016-08-18T21:48:45.092Z,0.00
2016-08-18T21:49:45.644Z,0.00
2016-08-18T21:50:46.169Z,0.00
2016-08-18T21:51:46.705Z,0.00
2016-08-18T21:52:47.241Z,0.00
2016-08-18T21:53:47.781Z,0.00
2016-08-18T21:54:48.323Z,0.00
2016-08-18T21:55:48.860Z,0.00
2016-08-18T21:56:49.399Z,0.00
2016-08-18T21:57:49.939Z,0.00
2016-08-18T21:58:50.486Z,0.00
2016-08-18T21:59:51.018Z,0.00
2016-08-18T22:00:51.584Z,0.00
2016-08-18T22:01:52.102Z,0.00
2016-08-18T22:02:52.648Z,0.00
2016-08-18T22:03:53.190Z,0.00
2016-08-18T22:04:53.738Z,0.00
2016-08-18T22:05:54.275Z,0.00
2016-08-18T22:06:54.820Z,0.00
2016-08-18T22:07:55.357Z,0.00
2016-08-18T22:08:55.895Z,0.00
2016-08-18T22:09:56.433Z,0.00
2016-08-18T22:10:56.972Z,0.00
2016-08-18T22:11:57.511Z,0.00
2016-08-18T22:12:58.053Z,0.00
2016-08-18T22:13:58.590Z,0.00
2016-08-18T22:14:59.152Z,0.00
2016-08-18T22:15:59.673Z,0.00
2016-08-18T22:17:00.213Z,0.00
2016-08-18T22:18:00.763Z,0.00
2016-08-18T22:19:01.315Z,0.00
2016-08-18T22:20:01.831Z,0.00
2016-08-18T22:21:02.374Z,0.00
2016-08-18T22:22:03.058Z,0.00
2016-08-18T22:23:03.455Z,0.00
2016-08-18T22:24:03.997Z,0.00
2016-08-18T22:25:04.533Z,0.00
2016-08-18T22:26:05.071Z,0.00
2016-08-18T22:27:05.608Z,0.00
2016-08-18T22:28:06.152Z,0.00
2016-08-18T22:29:06.703Z,0.00
2016-08-18T22:30:07.380Z,0.00
2016-08-18T22:31:07.770Z,0.00
2016-08-18T22:32:08.309Z,0.00
2016-08-18T22:33:08.847Z,0.00
2016-08-18T22:34:09.400Z,0.00
2016-08-18T22:35:09.925Z,0.00
2016-08-18T22:36:10.466Z,0.00
2016-08-18T22:37:11.008Z,0.00
2016-08-18T22:38:11.553Z,0.00
2016-08-18T22:39:12.269Z,0.00
2016-08-18T22:40:12.639Z,0.00
2016-08-18T22:41:13.180Z,0.00
2016-08-18T22:42:13.721Z,0.00
2016-08-18T22:43:14.265Z,0.00
2016-08-18T22:44:14.814Z,0.00
2016-08-18T22:45:15.340Z,0.00
2016-08-18T22:46:15.888Z,0.00
2016-08-18T22:47:16.597Z,0.00
2016-08-18T22:48:16.965Z,0.00
2016-08-18T22:49:17.507Z,0.00
2016-08-18T22:50:18.043Z,0.00
2016-08-18T22:51:18.584Z,0.00
2016-08-18T22:52:19.126Z,0.00
2016-08-18T22:53:19.664Z,0.00
2016-08-18T22:54:20.204Z,0.00
2016-08-18T22:55:20.748Z,0.00
2016-08-18T22:56:21.291Z,0.00
2016-08-18T22:57:21.828Z,0.00
2016-08-18T22:58:22.371Z,0.00
2016-08-18T22:59:22.919Z,0.00
2016-08-18T23:00:23.444Z,0.00
2016-08-18T23:01:23.986Z,0.00
2016-08-18T23:02:24.529Z,0.00
2016-08-18T23:03:25.215Z,0.00
2016-08-18T23:04:25.605Z,0.00
2016-08-18T23:05:26.300Z,0.00
2016-08-18T23:06:26.687Z,0.00
2016-08-18T23:07:27.227Z,0.00
2016-08-18T23:08:27.764Z,0.00
2016-08-18T23:09:28.307Z,0.00
2016-08-18T23:10:28.850Z,0.00
2016-08-18T23:11:29.401Z,0.00
2016-08-18T23:12:29.923Z,0.00
2016-08-18T23:13:30.461Z,0.00
2016-08-18T23:14:31.003Z,0.00
2016-08-18T23:15:31.545Z,0.00
2016-08-18T23:16:32.092Z,0.00
2016-08-18T23:17:32.787Z,0.00
2016-08-18T23:18:33.180Z,0.00
2016-08-18T23:19:33.725Z,0.00
2016-08-18T23:20:34.254Z,0.00
2016-08-18T23:21:34.941Z,0.00
2016-08-18T23:22:35.330Z,0.00
2016-08-18T23:23:35.874Z,0.00
2016-08-18T23:24:36.413Z,0.00
2016-08-18T23:25:36.952Z,0.00
2016-08-18T23:26:37.492Z,0.00
2016-08-18T23:27:38.026Z,0.00
2016-08-18T23:28:38.563Z,0.00
2016-08-18T23:29:39.261Z,0.00
2016-08-18T23:30:39.650Z,0.00
2016-08-18T23:31:40.193Z,0.00
2016-08-18T23:32:40.723Z,0.00
2016-08-18T23:33:41.264Z,0.00
2016-08-18T23:34:41.956Z,0.00
2016-08-18T23:35:42.487Z,0.00
2016-08-18T23:36:42.879Z,0.00
2016-08-18T23:37:43.423Z,0.00
2016-08-18T23:38:43.961Z,0.00
2016-08-18T23:39:44.525Z,0.00
2016-08-18T23:40:45.040Z,0.00
2016-08-18T23:41:45.587Z,0.00
2016-08-18T23:42:46.123Z,0.00
2016-08-18T23:43:46.807Z,0.00
2016-08-18T23:44:48.097Z,0.00
2016-08-18T23:45:47.736Z,0.00
2016-08-18T23:46:48.276Z,0.00
2016-08-18T23:47:48.817Z,0.00
2016-08-18T23:48:49.376Z,0.00
2016-08-18T23:49:49.896Z,0.00
2016-08-18T23:50:51.338Z,0.00
2016-08-18T23:51:51.130Z,0.00
2016-08-18T23:52:51.527Z,0.00
2016-08-18T23:53:52.072Z,0.00
2016-08-18T23:54:52.605Z,0.00
2016-08-18T23:55:53.152Z,0.00
2016-08-18T23:56:53.688Z,0.00
2016-08-18T23:57:54.230Z,0.00
2016-08-18T23:58:54.801Z,0.00
2016-08-18T23:59:55.312Z,0.00
